Time;durP1;ratioP1;P1;durP2;ratioP2;P2;SDS_P1;SDS_P2;PMS_P1;PMS_P2;Temp;Humidity;BMP_temperature;BMP_pressure;BME280_temperature;BME280_humidity;BME280_pressure;Samples;Min_cycle;Max_cycle;Signal;HPM_P1;HPM_P2
2022/07/22 00:49:11;;;;;;;;;;;;;;;19.31;100.00;101014.41;5562627;23;19985;-83
2022/07/22 02:23:36;;;;;;;;;;;;;;;19.64;100.00;100999.84;4869262;29;19918;-84
2022/07/22 02:26:01;;;;;;;;;;;;;;;19.65;100.00;101014.31;4870315;29;19933;-84
2022/07/22 02:39:43;;;;;;;;;;;;;;;19.62;100.00;101015.59;5918855;23;19922;-80
2022/07/22 04:20:00;;;;;;;;;;;;;;;19.33;100.00;100987.66;5074633;23;20102;-84
2022/07/22 04:25:35;;;;;;;;;;;;;;;19.33;100.00;100998.59;5993054;23;19922;31
2022/07/22 04:39:27;;;;;;;;;;;;;;;19.31;100.00;101010.84;5265094;23;20126;-82
2022/07/22 05:15:23;;;;;;;;;;;;;;;19.06;100.00;101011.31;5926920;23;19918;-79
2022/07/22 07:20:01;;;;;;;;;;;;;;;19.10;100.00;101028.81;5987270;23;21075;-86
2022/07/22 08:15:57;;;;;;;;;;;;;;;19.52;100.00;101052.88;5668041;23;19930;-82
2022/07/22 08:18:23;;;;;;;;;;;;;;;19.48;100.00;101058.00;4946382;29;19910;-82
2022/07/22 08:20:48;;;;;;;;;;;;;;;19.37;100.00;101056.22;4944812;29;19907;-82
2022/07/22 08:25:49;;;;;;;;;;;;;;;19.46;100.00;101062.88;4950021;23;19934;-81
2022/07/22 13:13:25;;;;;;;;;;;;;;;21.58;97.90;101178.59;5420153;23;19999;-84
2022/07/22 15:26:40;;;;;;;;;;;;;;;20.47;100.00;101152.69;4872254;29;19947;-83
2022/07/22 15:29:05;;;;;;;;;;;;;;;20.45;100.00;101148.53;5037845;23;19920;-83
2022/07/22 15:31:32;;;;;;;;;;;;;;;20.58;100.00;101145.44;4915599;29;20066;-86
2022/07/22 16:01:00;;;;;;;;;;;;;;;20.52;100.00;101176.53;6000163;23;19945;31
2022/07/22 16:03:26;;;;;;;;;;;;;;;20.37;100.00;101185.38;5056800;23;19927;-83
2022/07/22 17:32:31;;;;;;;;;;;;;;;18.92;100.00;101158.09;4949747;23;19991;-84
2022/07/22 17:34:57;;;;;;;;;;;;;;;18.77;100.00;101155.91;4906432;29;19928;-86
2022/07/22 17:37:22;;;;;;;;;;;;;;;18.82;100.00;101155.19;4905397;29;19919;-84
2022/07/22 17:39:48;;;;;;;;;;;;;;;18.83;100.00;101157.63;4939145;29;19951;-86
2022/07/22 18:15:50;;;;;;;;;;;;;;;19.31;100.00;101144.53;5665138;23;19934;-84
2022/07/22 18:20:51;;;;;;;;;;;;;;;19.96;100.00;101143.84;5599514;23;19912;-82
2022/07/22 18:23:16;;;;;;;;;;;;;;;20.38;100.00;101137.81;4918207;29;19950;-84
2022/07/22 18:25:42;;;;;;;;;;;;;;;20.65;100.00;101133.19;4928509;29;19946;-84
2022/07/22 18:48:49;;;;;;;;;;;;;;;19.94;100.00;101168.69;5872128;23;19922;-82
2022/07/22 18:51:16;;;;;;;;;;;;;;;19.97;100.00;101170.13;4940799;29;19907;-82
2022/07/22 19:19:31;;;;;;;;;;;;;;;19.25;100.00;101181.81;5434366;23;19922;-85
2022/07/22 19:50:23;;;;;;;;;;;;;;;18.71;100.00;101182.22;5674338;23;19923;-85
2022/07/22 21:13:00;;;;;;;;;;;;;;;17.73;100.00;101211.19;5557132;23;19926;-80
2022/07/22 21:15:26;;;;;;;;;;;;;;;17.71;100.00;101213.28;4916658;29;19956;-83
2022/07/22 21:17:51;;;;;;;;;;;;;;;17.74;100.00;101212.81;4921915;29;19911;-83
2022/07/22 21:20:17;;;;;;;;;;;;;;;17.69;100.00;101215.44;4923114;29;19942;-82
2022/07/22 21:22:42;;;;;;;;;;;;;;;17.64;100.00;101209.03;4922503;29;19908;-82
2022/07/22 21:25:08;;;;;;;;;;;;;;;17.63;100.00;101215.56;4921176;29;19927;-82
2022/07/22 21:27:33;;;;;;;;;;;;;;;17.55;100.00;101216.75;4921264;29;19916;-83
2022/07/22 21:30:01;;;;;;;;;;;;;;;17.46;100.00;101215.44;4922233;29;19924;-82
2022/07/22 21:32:27;;;;;;;;;;;;;;;17.45;100.00;101216.47;4920368;29;19919;-83
2022/07/22 21:34:52;;;;;;;;;;;;;;;17.48;100.00;101213.28;4921495;29;19927;-81
2022/07/22 21:37:33;;;;;;;;;;;;;;;17.53;100.00;101221.59;4921580;29;19954;-83
2022/07/22 21:39:58;;;;;;;;;;;;;;;17.55;100.00;101220.28;4920548;29;19923;-82
2022/07/22 21:42:24;;;;;;;;;;;;;;;17.57;100.00;101217.31;4921389;29;19953;-82
2022/07/22 21:44:50;;;;;;;;;;;;;;;17.59;100.00;101226.09;4922082;29;20251;-81
2022/07/22 21:47:15;;;;;;;;;;;;;;;17.58;100.00;101224.41;4920663;29;19935;-81
2022/07/22 21:49:40;;;;;;;;;;;;;;;17.60;100.00;101223.13;4913288;29;19915;-80
2022/07/22 21:52:06;;;;;;;;;;;;;;;17.61;100.00;101213.06;4911859;29;19931;-80
2022/07/22 21:54:31;;;;;;;;;;;;;;;17.58;100.00;101221.69;4915354;29;19903;-81
2022/07/22 21:56:56;;;;;;;;;;;;;;;17.62;100.00;101225.63;4904385;29;19963;-81
2022/07/22 21:59:22;;;;;;;;;;;;;;;17.60;100.00;101225.84;4921776;29;19920;-82
2022/07/22 22:01:49;;;;;;;;;;;;;;;17.61;100.00;101223.94;4919116;29;19983;-81
2022/07/22 22:04:15;;;;;;;;;;;;;;;17.59;100.00;101224.19;4921573;29;19931;-81
2022/07/22 22:06:40;;;;;;;;;;;;;;;17.57;100.00;101225.47;4920334;29;19923;-82
2022/07/22 22:09:05;;;;;;;;;;;;;;;17.53;100.00;101227.03;4940478;29;19927;-80
2022/07/22 22:11:30;;;;;;;;;;;;;;;17.48;100.00;101218.72;4926334;29;19919;-82
2022/07/22 22:13:56;;;;;;;;;;;;;;;17.45;100.00;101224.63;4943236;29;19928;-81
2022/07/22 22:16:24;;;;;;;;;;;;;;;17.38;100.00;101219.31;4926932;29;20401;-82
2022/07/22 22:18:49;;;;;;;;;;;;;;;17.34;100.00;101213.50;4928637;29;19927;-82
2022/07/22 22:21:14;;;;;;;;;;;;;;;17.32;100.00;101210.22;4911160;29;19992;-82
2022/07/22 22:23:40;;;;;;;;;;;;;;;17.31;100.00;101224.84;4943190;29;19904;-83
2022/07/22 22:26:05;;;;;;;;;;;;;;;17.29;100.00;101218.00;4911789;29;19939;-82
2022/07/22 22:28:30;;;;;;;;;;;;;;;17.29;100.00;101218.84;4942682;29;19954;-82
2022/07/22 22:30:56;;;;;;;;;;;;;;;17.30;100.00;101206.88;4921038;29;19982;-82
2022/07/22 22:33:21;;;;;;;;;;;;;;;17.31;100.00;101208.53;4929535;29;19933;-82
2022/07/22 22:35:46;;;;;;;;;;;;;;;17.31;100.00;101208.53;4929359;29;19907;-82
2022/07/22 22:38:12;;;;;;;;;;;;;;;17.30;100.00;101201.44;4933316;29;19991;-82
2022/07/22 22:40:37;;;;;;;;;;;;;;;17.30;100.00;101206.06;4926771;29;19919;-83
2022/07/22 22:43:02;;;;;;;;;;;;;;;17.27;100.00;101201.91;4942572;29;19923;-82
2022/07/22 22:45:28;;;;;;;;;;;;;;;17.22;100.00;101196.34;4930875;29;20009;-82
2022/07/22 22:47:53;;;;;;;;;;;;;;;17.22;100.00;101196.34;4937290;29;20263;-82
2022/07/22 22:50:18;;;;;;;;;;;;;;;17.24;100.00;101199.66;4934506;29;19907;-82
2022/07/22 22:52:44;;;;;;;;;;;;;;;17.25;100.00;101198.59;4935821;29;19923;-82
2022/07/22 22:55:09;;;;;;;;;;;;;;;17.28;100.00;101191.84;4916249;29;19914;-82
2022/07/22 22:57:34;;;;;;;;;;;;;;;17.31;100.00;101191.38;4952554;29;19922;-82
2022/07/22 22:59:59;;;;;;;;;;;;;;;17.35;100.00;101195.28;4944302;29;19930;-83
2022/07/22 23:02:25;;;;;;;;;;;;;;;17.37;100.00;101196.72;4922693;29;19927;-82
2022/07/22 23:04:50;;;;;;;;;;;;;;;17.37;100.00;101196.72;4943158;29;19907;-82
2022/07/22 23:07:15;;;;;;;;;;;;;;;17.39;100.00;101199.22;4942119;29;19998;-82
2022/07/22 23:09:40;;;;;;;;;;;;;;;17.38;100.00;101201.13;4943725;29;19907;-82
2022/07/22 23:12:08;;;;;;;;;;;;;;;17.41;100.00;101193.53;4912282;29;19915;-82
2022/07/22 23:14:34;;;;;;;;;;;;;;;17.41;100.00;101202.50;4943089;29;19915;-82
2022/07/22 23:16:59;;;;;;;;;;;;;;;17.42;100.00;101197.91;4942868;29;19911;-82
2022/07/22 23:19:25;;;;;;;;;;;;;;;17.43;100.00;101197.69;4940703;29;19924;-82
2022/07/22 23:21:50;;;;;;;;;;;;;;;17.45;100.00;101197.44;4942875;29;19927;-83
2022/07/22 23:24:15;;;;;;;;;;;;;;;17.48;100.00;101197.81;4926676;29;19997;-81
2022/07/22 23:26:42;;;;;;;;;;;;;;;17.48;100.00;101196.97;4919511;29;19910;-82
2022/07/22 23:29:07;;;;;;;;;;;;;;;17.52;100.00;101193.56;4927722;29;19927;-82
2022/07/22 23:31:32;;;;;;;;;;;;;;;17.57;100.00;101201.81;4926773;29;19962;-82
2022/07/22 23:34:00;;;;;;;;;;;;;;;17.54;100.00;101202.28;4926450;29;19911;-83
2022/07/22 23:36:28;;;;;;;;;;;;;;;17.60;100.00;101195.91;4928104;29;19927;-81
2022/07/22 23:38:55;;;;;;;;;;;;;;;17.63;100.00;101204.69;4927170;29;19907;-83
2022/07/22 23:41:39;;;;;;;;;;;;;;;17.57;100.00;101203.72;4924686;29;19914;-81
2022/07/22 23:44:04;;;;;;;;;;;;;;;17.65;100.00;101213.41;4942588;29;19921;-82
2022/07/22 23:56:50;;;;;;;;;;;;;;;17.58;100.00;101202.63;5443027;23;19927;-82
2022/07/22 23:59:16;;;;;;;;;;;;;;;17.57;100.00;101211.88;4940226;29;19970;-83
